Terminal Aerodrome Forecast
Issued by NWS Charleston, WV

Current Version | Previous Version | Graphics & Text | Print | Product List | Glossary On
Versions: 1 2 3 4 5 6 7 8 9 10 11 12 13 14 15 16 17 18 19 20
523
FTUS41 KRLX 201721
TAFBKW
TAF
KBKW 201721Z 2018/2118 28006KT P6SM SCT060
     FM210300 00000KT P6SM FEW250
     FM211500 27006KT P6SM SCT140
     FM211700 29007KT P6SM BKN080=

USA.gov is the U.S. government's official web portal to all federal, state and local government web resources and services.